Flight Track Log - Related Links

Times and Time Zones

All times are in EDT time to prevent confusion due to time zone crossing. See the UAL6148 flight status page for this flight to view local times or setup timezone preferences in your user account.

Time Position Orientation Groundspeed Altitude Reporting Facility
EDT Latitude Longitude Course Direction KTS MPH feet Rate Location/Type
Mon 06:56:39 PM 41.9333 -87.9333 261° West 194 223 2,700  Level Chicago TRACON
Mon 06:57:39 PM 41.8833 -87.9833 217° Southwest 241 277 4,700 2,459 Climbing Chicago TRACON
Mon 06:58:41 PM 41.8494 -88.0567 238° Southwest 253 291 7,700 2,829 Climbing Chicago Center
Mon 06:59:42 PM 41.8514 -88.1578 272° West 274 315 10,500 2,049 Climbing Chicago Center
Mon 07:00:44 PM 41.8508 -88.2950 270° West 309 356 11,900 1,452 Climbing Chicago Center
Mon 07:01:46 PM 41.8506 -88.4264 270° West 351 404 13,500 1,548 Climbing Chicago Center
Mon 07:02:00 PM 41.8935 -88.6647 261° West  Level FlightAware Approximate
Mon 07:02:48 PM 41.8506 -88.5600 270° West 362 417 15,100  Level Chicago Center
Mon 07:03:50 PM 41.8492 -88.6950 269° West 364 419 16,700 1,452 Climbing Chicago Center
Mon 07:04:52 PM 41.8486 -88.8303 270° West 366 421 18,100 1,452 Climbing Chicago Center
Mon 07:05:54 PM 41.8494 -88.9967 270° West 373 429 19,700 1,366 Climbing Chicago Center
Mon 07:06:55 PM 41.8492 -89.1369 270° West 378 435 20,900 1,463 Climbing Chicago Center
Mon 07:07:57 PM 41.8231 -89.2722 256° West 382 440 22,700 1,790 Climbing Chicago Center
Mon 07:08:59 PM 41.7992 -89.4025 256° West 371 427 24,600 1,839 Climbing Chicago Center
Mon 07:10:01 PM 41.7728 -89.5286 254° West 360 414 26,500 1,742 Climbing Chicago Center
Mon 07:11:03 PM 41.7447 -89.6531 253° West 349 402 28,200 1,561 Climbing Chicago Center
Mon 07:12:04 PM 41.7131 -89.8019 254° West 348 400 29,700 1,415 Climbing Chicago Center
Mon 07:13:06 PM 41.6989 -89.9308 262° West 353 406 31,100 1,104 Climbing Chicago Center
Mon 07:14:09 PM 41.6864 -90.0583 263° West 350 403 32,000 435 Climbing Chicago Center
Mon 07:15:10 PM 41.6736 -90.1961 263° West 370 426 32,000 439 Level Chicago Center
Mon 07:16:12 PM 41.6581 -90.3456 262° West 407 468 32,900 488 Climbing Chicago Center
Mon 07:17:13 PM 41.6447 -90.4883 263° West 391 450 33,000 49 Climbing Chicago Center
Mon 07:18:15 PM 41.6292 -90.6481 263° West 389 448 33,000  Level Chicago Center
Mon 07:19:17 PM 41.6136 -90.7919 262° West 393 452 33,000  Level Chicago Center
Mon 07:20:19 PM 41.5994 -90.9361 263° West 394 453 33,000  Level Chicago Center
Mon 07:21:21 PM 41.5850 -91.0806 262° West 395 455 33,000  Level Chicago Center
Mon 07:22:23 PM 41.5669 -91.2528 262° West 394 453 33,000  Level Chicago Center
Mon 07:23:24 PM 41.5519 -91.3939 262° West 389 448 33,000  Level Chicago Center
Mon 07:25:28 PM 41.5222 -91.6742 262° West 383 441 33,000 323 Level Chicago Center
Mon 07:26:30 PM 41.5069 -91.8147 262° West 385 443 34,000 484 Climbing Chicago Center
Mon 07:27:32 PM 41.4914 -91.9533 262° West 382 440 34,000  Level Chicago Center
Mon 07:28:34 PM 41.4725 -92.1236 262° West 388 447 34,000  Level Chicago Center
Mon 07:29:35 PM 41.4558 -92.2672 261° West 394 453 34,000  Level Chicago Center
Mon 07:30:37 PM 41.4411 -92.3997 262° West 392 451 34,000  Level Chicago Center
Mon 07:31:39 PM 41.4192 -92.5661 260° West 387 445 34,000  Level Chicago Center
Mon 07:32:41 PM 41.4047 -92.7097 262° West 391 450 34,000  Level Chicago Center
Mon 07:33:43 PM 41.3875 -92.8492 261° West 388 447 34,000  Level Chicago Center
Mon 07:34:45 PM 41.3703 -92.9897 261° West 386 444 34,000  Level Minneapolis Center
Mon 07:35:47 PM 41.3536 -93.1303 261° West 389 448 34,000  Level Minneapolis Center
Mon 07:36:49 PM 41.3333 -93.2994 261° West 390 449 34,000  Level Minneapolis Center
Mon 07:37:51 PM 41.3153 -93.4367 260° West 385 443 34,000  Level Minneapolis Center
Mon 07:38:53 PM 41.2975 -93.5792 261° West 390 449 34,000  Level Minneapolis Center
Mon 07:39:54 PM 41.2792 -93.7208 260° West 392 451 34,000  Level Minneapolis Center
Mon 07:40:56 PM 41.2600 -93.8636 260° West 393 452 34,000  Level Minneapolis Center
Mon 07:41:58 PM 41.2403 -94.0306 261° West 391 450 34,000  Level Minneapolis Center
Mon 07:43:00 PM 41.2222 -94.1708 260° West 390 449 34,000  Level Minneapolis Center
Mon 07:44:02 PM 41.2022 -94.3203 260° West 396 456 34,000  Level Minneapolis Center
Mon 07:45:04 PM 41.1839 -94.4633 260° West 396 456 34,000  Level Minneapolis Center
Mon 07:46:05 PM 41.1644 -94.6047 260° West 391 450 34,000 -439 Level Minneapolis Center
Mon 07:47:07 PM 41.1447 -94.7472 260° West 393 452 33,100 -1,355 Descending Minneapolis Center
Mon 07:48:09 PM 41.1253 -94.8886 260° West 390 449 31,200 -2,226 Descending Minneapolis Center
Mon 07:49:11 PM 41.1014 -95.0672 260° West 405 466 28,500 -2,419 Descending Minneapolis Center
Mon 07:50:13 PM 41.0786 -95.2253 259° West 426 490 26,200 -2,323 Descending Minneapolis Center
Mon 07:51:15 PM 41.0614 -95.3850 262° West 432 497 23,700 -2,449 Descending Minneapolis Center
Mon 07:51:51 PM 41.0489 -95.4725 259° West 393 452 22,200 -2,323 Descending Minneapolis Center
Mon 07:52:17 PM 41.0367 -95.5236 252° West 405 466 21,300 -2,418 Descending Minneapolis Center
Mon 07:52:58 PM 41.0400 -95.6172 273° West 353 406 19,500 -2,419 Descending Minneapolis Center
Mon 07:53:19 PM 41.0358 -95.6558 262° West 368 423 18,800 -2,111 Descending Minneapolis Center
Mon 07:53:52 PM 41.0358 -95.7394 270° West 348 400 17,600 -1,839 Descending Minneapolis Center
Mon 07:54:21 PM 41.0317 -95.7858 263° West 354 407 16,900 -1,967 Descending Minneapolis Center
Mon 07:54:53 PM 41.0300 -95.8728 269° West 361 415 15,600 -2,032 Descending Minneapolis Center
Mon 07:55:23 PM 41.0281 -95.9200 267° West 359 413 14,800 -1,600 Descending Minneapolis Center
Mon 07:55:53 PM 41.0006 -95.9978 245° Southwest 340 391 14,000 -1,180 Descending Minneapolis Center
Mon 07:56:24 PM 40.9867 -96.0347 244° Southwest 344 396 13,600 -1,475 Descending Minneapolis Center
Mon 07:56:54 PM 40.9547 -96.0967 236° Southwest 310 357 12,500 -2,032 Descending Minneapolis Center
Mon 07:57:26 PM 40.9328 -96.1525 243° Southwest 314 361 11,500 -1,800 Descending Minneapolis Center
Mon 07:57:54 PM 40.9086 -96.1903 230° Southwest 310 357 10,700 -1,355 Descending Minneapolis Center
Mon 07:58:28 PM 40.8883 -96.2453 244° Southwest 304 350 10,100 -1,279 Descending Minneapolis Center
Mon 07:58:55 PM 40.8678 -96.2719 224° Southwest 254 292 9,400 -1,645 Descending Minneapolis Center
Mon 07:59:30 PM 40.8514 -96.3247 248° West 269 310 8,400 -1,967 Descending Minneapolis Center
Mon 07:59:56 PM 40.8272 -96.3589 227° Southwest 253 291 7,400 -1,742 Descending Minneapolis Center
Mon 08:00:32 PM 40.8167 -96.4042 253° West 257 296 6,600 -1,727 Descending Minneapolis Center
Mon 08:01:02 PM 40.7903 -96.4400 226° Southwest 244 281 5,500 -1,645 Descending Minneapolis Center
Mon 08:01:34 PM 40.7828 -96.4811 256° West 250 288 4,900 -1,279 Descending Minneapolis Center
Mon 08:02:03 PM 40.7508 -96.5131 217° Southwest 248 285 4,200 -871 Descending Minneapolis Center
Mon 08:02:36 PM 40.7417 -96.5539 254° West 248 285 4,000 -295 Descending Minneapolis Center
Mon 08:03:04 PM 40.7031 -96.5867 213° Southwest 263 303 3,900  Descending Minneapolis Center
Mon 08:03:38 PM 40.6933 -96.6269 252° West 254 292 4,000 100 Climbing Minneapolis Center
Mon 08:04:04 PM 40.6514 -96.6661 215° Southwest 268 308 4,000 -98 Level Minneapolis Center
Mon 08:04:39 PM 40.6469 -96.7036 261° West 262 302 3,900 -689 Descending Minneapolis Center
Mon 08:05:05 PM 40.6394 -96.7469 257° West 225 259 3,300 -774 Descending Minneapolis Center
Mon 08:05:41 PM 40.6747 -96.7742 330° Northwest 225 259 3,100 -300 Descending Minneapolis Center
Mon 08:06:05 PM 40.6839 -96.7561 56° Northeast 167 192 3,000 -97 Descending Minneapolis Center
Mon 08:06:43 PM 40.7200 -96.7631 352° North 186 214 3,000  Level Minneapolis Center
Mon 08:07:06 PM 40.7278 -96.7544 40° Northeast 157 181 3,000 -387 Level Minneapolis Center
Mon 08:07:45 PM 40.7606 -96.7631 349° North 164 189 2,600 -627 Descending Minneapolis Center
Mon 08:08:13 PM 40.7611 -96.7539 85° East 107 123 2,300 -581 Descending Minneapolis Center
Mon 08:08:47 PM 40.7903 -96.7631 347° North 136 157 2,000 -556 Descending Minneapolis Center
Mon 08:09:07 PM 40.7906 -96.7564 87° East 116 133 1,800 -194 Descending Minneapolis Center
Mon 08:09:49 PM 40.8189 -96.7639 349° North 128 147 1,800  Level Minneapolis Center

Login

Don't have an account? Register now (free) for customized features, flight alerts, and more!